Blanding, Utah
Current Conditions -  °F | °C
As of 3:55 PM on Saturday 20 Dec 2014 (Local Time) from KBDG Reporting Station
Overcast Overcast  
Wind Chill: 34°   Ceiling: 1100
Heat Index: 34°   Visibility: 10mi
Dew Point: 31°   Wind: 0mph
Humidity: 90%   Direction: NA
Pressure: 30.18"   Gusts: NA
Location:  37.62°N, 109.48°W
Report Text: KBDG 202255Z AUTO 00000KT 10SM BKN011 OVC100 01/00 A3018 RMK AO1 T00101005
Loading
Personal Weather Stations






























Interactive Weather Map New forecast layout! Learn more

10-Day Weather Forecast

Advertisements
Track Severe Weather on mobile